createdAt,value
2019-03-01T00:01:58.163Z,4.77
2019-03-01T00:04:51.689Z,6.67
2019-03-01T00:07:57.503Z,5.13
2019-03-01T00:11:06.434Z,5.60
2019-03-01T00:13:57.052Z,5.03
2019-03-01T00:16:54.790Z,5.70
2019-03-01T00:20:15.014Z,4.80
2019-03-01T00:23:08.662Z,4.53
2019-03-01T00:26:04.148Z,4.80
2019-03-01T00:28:45.874Z,5.23
2019-03-01T00:31:42.036Z,4.60
2019-03-01T00:34:54.102Z,5.23
2019-03-01T00:37:59.755Z,5.80
2019-03-01T00:40:39.079Z,6.90
2019-03-01T00:44:00.050Z,5.07
2019-03-01T00:46:28.942Z,5.57
2019-03-01T00:48:58.199Z,5.83
2019-03-01T00:51:27.383Z,5.70
2019-03-01T00:53:56.239Z,6.43
2019-03-01T00:56:25.188Z,6.07
2019-03-01T00:58:54.046Z,6.23
2019-03-01T01:01:22.842Z,5.83
2019-03-01T01:03:51.815Z,5.83
2019-03-01T01:06:20.653Z,5.40
2019-03-01T01:08:49.526Z,5.70
2019-03-01T01:11:18.663Z,6.03
2019-03-01T01:13:47.527Z,5.50
2019-03-01T01:16:16.623Z,6.20
2019-03-01T01:18:45.644Z,5.93
2019-03-01T01:21:14.556Z,5.93
2019-03-01T01:23:43.598Z,5.73
2019-03-01T01:26:12.629Z,5.07
2019-03-01T01:28:41.419Z,5.57
2019-03-01T01:31:10.310Z,3.73
2019-03-01T01:33:39.176Z,5.07
2019-03-01T01:36:08.212Z,5.50
2019-03-01T01:38:37.313Z,5.10
2019-03-01T01:41:06.188Z,6.10
2019-03-01T01:43:35.066Z,5.60
2019-03-01T01:46:04.274Z,5.27
2019-03-01T01:48:33.124Z,3.87
2019-03-01T01:51:01.928Z,4.40
2019-03-01T01:53:31.115Z,4.90
2019-03-01T01:56:00.045Z,4.70
2019-03-01T01:58:29.282Z,3.67
2019-03-01T02:00:58.222Z,4.50
2019-03-01T02:03:27.295Z,5.20
2019-03-01T02:05:56.827Z,4.97
2019-03-01T02:08:25.902Z,4.10
2019-03-01T02:10:54.848Z,2.43
2019-03-01T02:13:23.791Z,3.83
2019-03-01T02:15:52.886Z,2.70
2019-03-01T02:18:21.792Z,3.30
2019-03-01T02:20:50.755Z,3.60
2019-03-01T02:23:19.882Z,2.23
2019-03-01T02:25:48.857Z,2.90
2019-03-01T02:28:17.983Z,4.07
2019-03-01T02:30:47.398Z,2.97
2019-03-01T02:33:16.615Z,3.20
2019-03-01T02:35:45.581Z,4.43
2019-03-01T02:38:14.492Z,3.40
2019-03-01T02:40:45.123Z,3.63
2019-03-01T02:43:14.282Z,3.60
2019-03-01T02:45:43.332Z,4.33
2019-03-01T02:48:12.236Z,4.97
2019-03-01T02:50:41.270Z,4.00
2019-03-01T02:53:10.279Z,3.07
2019-03-01T02:55:39.282Z,5.00
2019-03-01T02:58:08.428Z,4.10
2019-03-01T03:00:37.456Z,5.33
2019-03-01T03:03:06.658Z,3.20
2019-03-01T03:05:46.083Z,2.90
2019-03-01T03:08:15.220Z,3.57
2019-03-01T03:10:44.065Z,2.40
2019-03-01T03:13:13.097Z,3.37
2019-03-01T03:15:44.613Z,3.00
2019-03-01T03:18:13.581Z,3.60
2019-03-01T03:20:42.493Z,3.63
2019-03-01T03:23:11.467Z,3.97
2019-03-01T03:25:40.460Z,3.97
2019-03-01T03:28:09.426Z,3.43
2019-03-01T03:30:38.661Z,3.30
2019-03-01T03:33:07.536Z,3.60
2019-03-01T03:35:36.450Z,5.27
2019-03-01T03:38:05.957Z,5.00
2019-03-01T03:40:35.082Z,4.53
2019-03-01T03:43:03.972Z,4.37
2019-03-01T03:45:32.883Z,3.07
2019-03-01T03:48:01.795Z,4.57
2019-03-01T03:50:30.961Z,3.90
2019-03-01T03:52:59.849Z,4.40
2019-03-01T03:55:28.827Z,4.23
2019-03-01T03:57:57.796Z,4.67
2019-03-01T04:00:27.037Z,4.67
2019-03-01T04:02:55.999Z,4.40
2019-03-01T04:05:24.942Z,5.47
2019-03-01T04:07:54.000Z,5.10
2019-03-01T04:10:23.138Z,5.17
2019-03-01T04:12:52.330Z,4.90
2019-03-01T04:15:21.323Z,5.23
2019-03-01T04:17:50.774Z,5.80
2019-03-01T04:20:19.788Z,5.20
2019-03-01T04:22:48.788Z,5.20
2019-03-01T04:25:17.851Z,3.93
2019-03-01T04:27:46.810Z,5.87
2019-03-01T04:30:16.683Z,6.30
2019-03-01T04:32:46.050Z,5.60
2019-03-01T04:35:15.407Z,5.40
2019-03-01T04:37:44.862Z,5.47
2019-03-01T04:40:16.611Z,5.60
2019-03-01T04:42:45.834Z,6.60
2019-03-01T04:45:14.905Z,5.93
2019-03-01T04:47:43.805Z,6.83
2019-03-01T04:50:13.468Z,5.20
2019-03-01T04:52:42.444Z,6.97
2019-03-01T04:55:16.506Z,6.37
2019-03-01T04:57:45.392Z,5.20
2019-03-01T05:00:16.376Z,5.83
2019-03-01T05:02:45.657Z,6.57
2019-03-01T05:05:15.217Z,5.60
2019-03-01T05:07:44.286Z,6.07
2019-03-01T05:10:13.502Z,5.50
2019-03-01T05:12:42.770Z,7.67
2019-03-01T05:15:14.623Z,6.77
2019-03-01T05:17:43.702Z,6.03
2019-03-01T05:20:14.235Z,5.33
2019-03-01T05:22:43.183Z,5.77
2019-03-01T05:25:12.157Z,5.60
2019-03-01T05:27:41.106Z,5.60
2019-03-01T05:30:11.351Z,6.80
2019-03-01T05:32:40.353Z,6.20
2019-03-01T05:35:09.394Z,5.43
2019-03-01T05:37:38.775Z,6.50
2019-03-01T05:40:08.611Z,6.30
2019-03-01T05:42:37.583Z,6.10
2019-03-01T05:45:09.143Z,6.97
2019-03-01T05:47:38.063Z,6.60
2019-03-01T05:50:07.791Z,7.13
2019-03-01T05:52:36.603Z,6.03
2019-03-01T05:55:06.659Z,5.27
2019-03-01T05:57:35.835Z,6.20
2019-03-01T06:00:07.161Z,6.40
2019-03-01T06:02:44.211Z,6.07
2019-03-01T06:05:19.393Z,7.20
2019-03-01T06:08:22.545Z,6.53
2019-03-01T06:11:19.623Z,5.30
2019-03-01T06:14:13.628Z,7.30
2019-03-01T06:17:30.317Z,8.30
2019-03-01T06:20:17.706Z,8.97
2019-03-01T06:22:56.837Z,7.90
2019-03-01T06:26:24.911Z,6.37
2019-03-01T06:29:36.688Z,8.30
2019-03-01T06:32:57.284Z,6.87
2019-03-01T06:35:55.150Z,9.37
2019-03-01T06:39:17.290Z,7.50
2019-03-01T06:42:31.143Z,8.63
2019-03-01T06:45:45.618Z,5.40
2019-03-01T06:48:23.299Z,5.67
2019-03-01T06:50:59.043Z,7.70
2019-03-01T06:53:28.176Z,7.53
2019-03-01T06:56:06.912Z,7.80
2019-03-01T06:58:48.203Z,7.37
2019-03-01T07:01:19.062Z,6.10
2019-03-01T07:03:55.972Z,6.47
2019-03-01T07:06:24.796Z,6.53
2019-03-01T07:08:53.938Z,6.77
2019-03-01T07:11:23.244Z,6.70
2019-03-01T07:13:52.060Z,6.70
2019-03-01T07:16:21.111Z,6.60
2019-03-01T07:18:50.270Z,6.07
2019-03-01T07:21:19.135Z,7.93
2019-03-01T07:23:48.230Z,7.40
2019-03-01T07:26:17.478Z,7.13
2019-03-01T07:28:46.576Z,6.13
2019-03-01T07:31:15.644Z,6.80
2019-03-01T07:33:44.902Z,6.47
2019-03-01T07:36:14.018Z,6.23
2019-03-01T07:38:42.860Z,7.00
2019-03-01T07:41:11.775Z,7.40
2019-03-01T07:43:40.601Z,6.50
2019-03-01T07:46:10.014Z,7.70
2019-03-01T07:48:39.052Z,6.67
2019-03-01T07:51:07.942Z,5.50
2019-03-01T07:53:41.081Z,7.07
2019-03-01T07:56:07.379Z,5.80
2019-03-01T07:58:36.180Z,4.20
2019-03-01T08:01:05.604Z,6.23
2019-03-01T08:03:34.803Z,6.07
2019-03-01T08:06:03.739Z,6.20
2019-03-01T08:08:34.873Z,5.90
2019-03-01T08:11:03.458Z,5.90
2019-03-01T08:13:32.991Z,4.83
2019-03-01T08:16:02.204Z,4.67
2019-03-01T08:18:31.007Z,4.40
2019-03-01T08:21:01.519Z,6.87
2019-03-01T08:23:31.809Z,4.23
2019-03-01T08:26:03.274Z,4.30
2019-03-01T08:28:31.673Z,4.73
2019-03-01T08:31:00.782Z,5.97
2019-03-01T08:33:29.973Z,5.10
2019-03-01T08:35:58.866Z,4.30
2019-03-01T08:38:28.789Z,5.90
2019-03-01T08:40:58.500Z,4.97
2019-03-01T08:43:27.684Z,5.10
2019-03-01T08:45:57.403Z,4.30
2019-03-01T08:48:26.292Z,6.10
2019-03-01T08:50:55.228Z,5.30
2019-03-01T08:53:24.083Z,7.63
2019-03-01T08:55:53.230Z,6.03
2019-03-01T08:58:22.612Z,4.40
2019-03-01T09:00:59.342Z,5.83
2019-03-01T09:03:31.525Z,6.53
2019-03-01T09:06:00.683Z,6.90
2019-03-01T09:08:29.733Z,5.30
2019-03-01T09:10:59.546Z,5.13
2019-03-01T09:13:31.625Z,4.10
2019-03-01T09:16:00.839Z,5.67
2019-03-01T09:18:29.924Z,7.33
2019-03-01T09:21:05.657Z,5.23
2019-03-01T09:23:29.635Z,5.40
2019-03-01T09:25:58.794Z,3.97
2019-03-01T09:28:27.647Z,5.90
2019-03-01T09:30:56.714Z,4.10
2019-03-01T09:33:25.639Z,4.30
2019-03-01T09:36:06.171Z,5.63
2019-03-01T09:38:34.991Z,4.50
2019-03-01T09:41:04.658Z,4.93
2019-03-01T09:43:34.311Z,5.10
2019-03-01T09:46:03.367Z,5.50
2019-03-01T09:48:32.447Z,6.27
2019-03-01T09:51:03.624Z,5.37
2019-03-01T09:53:35.209Z,6.03
2019-03-01T09:56:04.362Z,4.53
2019-03-01T09:58:33.514Z,4.23
2019-03-01T10:01:14.560Z,4.90
2019-03-01T10:03:43.857Z,5.17
2019-03-01T10:06:13.132Z,5.27
2019-03-01T10:08:42.124Z,3.27
2019-03-01T10:11:13.807Z,3.57
2019-03-01T10:13:45.593Z,5.70
2019-03-01T10:16:14.855Z,4.50
2019-03-01T10:18:51.118Z,24.47
2019-03-01T10:21:20.528Z,3.10
2019-03-01T10:23:49.893Z,4.10
2019-03-01T10:26:29.216Z,4.20
2019-03-01T10:29:00.537Z,4.37
2019-03-01T10:31:31.266Z,4.07
2019-03-01T10:34:00.660Z,3.70
2019-03-01T10:36:29.945Z,3.40
2019-03-01T10:39:23.037Z,2.43
2019-03-01T10:41:34.773Z,3.87
2019-03-01T10:44:06.352Z,2.50
2019-03-01T10:46:36.651Z,3.07
2019-03-01T10:49:06.566Z,2.57
2019-03-01T10:51:48.795Z,3.80
2019-03-01T10:54:31.294Z,2.60
2019-03-01T10:57:03.263Z,2.57
2019-03-01T10:59:33.073Z,2.80
2019-03-01T11:02:08.721Z,3.20
2019-03-01T11:04:43.558Z,2.70
2019-03-01T11:07:15.813Z,2.63
2019-03-01T11:09:55.771Z,2.70
2019-03-01T11:12:26.410Z,2.17
2019-03-01T11:15:00.231Z,2.23
2019-03-01T11:17:34.415Z,1.97
2019-03-01T11:20:07.403Z,2.07
2019-03-01T11:22:40.902Z,2.47
2019-03-01T11:25:18.909Z,2.23
2019-03-01T11:27:54.932Z,2.83
2019-03-01T11:30:28.160Z,1.70
2019-03-01T11:33:13.536Z,1.90
2019-03-01T11:35:59.529Z,3.13
2019-03-01T11:38:40.134Z,1.73
2019-03-01T11:41:17.081Z,2.30
2019-03-01T11:44:01.649Z,2.77
2019-03-01T11:46:37.794Z,1.80
2019-03-01T11:49:18.773Z,2.17
2019-03-01T11:51:58.706Z,3.10
2019-03-01T11:54:37.223Z,2.33
2019-03-01T11:57:12.468Z,2.33
2019-03-01T11:59:57.650Z,2.40
2019-03-01T12:02:34.734Z,3.30
2019-03-01T12:05:08.420Z,3.80
2019-03-01T12:07:40.208Z,3.27
2019-03-01T12:10:12.680Z,2.53
2019-03-01T12:12:47.749Z,4.17
2019-03-01T12:15:28.583Z,2.27
2019-03-01T12:18:05.430Z,3.97
2019-03-01T12:20:46.199Z,4.73
2019-03-01T12:23:19.332Z,3.13
2019-03-01T12:26:10.385Z,3.47
2019-03-01T12:28:51.818Z,3.10
2019-03-01T12:31:40.475Z,4.47
2019-03-01T12:34:23.085Z,5.57
2019-03-01T12:37:03.857Z,6.17
2019-03-01T12:39:32.839Z,5.27
2019-03-01T12:42:01.874Z,6.90
2019-03-01T12:44:30.767Z,9.50
2019-03-01T12:46:59.645Z,15.13
2019-03-01T12:49:28.803Z,11.07
2019-03-01T12:51:57.827Z,16.83
2019-03-01T12:54:27.023Z,12.13
2019-03-01T12:56:55.962Z,13.37
2019-03-01T12:59:25.086Z,11.17
2019-03-01T13:01:53.940Z,19.10
2019-03-01T13:04:22.819Z,20.07
2019-03-01T13:06:51.711Z,20.03
2019-03-01T13:09:23.432Z,20.90
2019-03-01T13:11:52.067Z,20.63
2019-03-01T13:14:20.963Z,15.50
2019-03-01T13:16:50.012Z,22.50
2019-03-01T13:19:18.982Z,22.00
2019-03-01T13:21:49.193Z,27.07
2019-03-01T13:24:18.660Z,22.57
2019-03-01T13:26:47.548Z,24.87
2019-03-01T13:29:19.081Z,25.53
2019-03-01T13:31:47.923Z,17.33
2019-03-01T13:34:16.976Z,22.60
2019-03-01T13:36:46.005Z,19.20
2019-03-01T13:39:14.978Z,23.47
2019-03-01T13:41:44.114Z,25.10
2019-03-01T13:44:13.881Z,23.03
2019-03-01T13:46:42.828Z,16.70
2019-03-01T13:49:11.649Z,22.70
2019-03-01T13:51:40.555Z,19.10
2019-03-01T13:54:09.856Z,26.80
2019-03-01T13:56:38.847Z,24.63
2019-03-01T13:59:07.740Z,22.23
2019-03-01T14:01:36.716Z,16.30
2019-03-01T14:04:05.608Z,24.53
2019-03-01T14:06:34.810Z,22.40
2019-03-01T14:09:05.540Z,22.60
2019-03-01T14:11:34.699Z,24.37
2019-03-01T14:14:04.304Z,25.53
2019-03-01T14:16:33.243Z,28.83
2019-03-01T14:19:02.291Z,27.57
2019-03-01T14:21:33.064Z,27.30
2019-03-01T14:24:01.782Z,28.07
2019-03-01T14:26:30.739Z,19.50
2019-03-01T14:29:02.826Z,24.97
2019-03-01T14:31:31.629Z,26.77
2019-03-01T14:34:00.526Z,25.87
2019-03-01T14:36:29.417Z,26.93
2019-03-01T14:38:58.598Z,21.57
2019-03-01T14:41:27.709Z,28.50
2019-03-01T14:43:59.098Z,26.53
2019-03-01T14:46:28.434Z,25.57
2019-03-01T14:48:57.357Z,28.23
2019-03-01T14:51:26.255Z,28.00
2019-03-01T14:53:55.163Z,21.70
2019-03-01T14:56:31.185Z,25.10
2019-03-01T14:59:37.985Z,24.50
2019-03-01T15:02:41.136Z,20.33
2019-03-01T15:05:17.182Z,20.90
2019-03-01T15:07:40.777Z,20.97
2019-03-01T15:10:10.767Z,20.80
2019-03-01T15:12:39.732Z,23.57
2019-03-01T15:15:10.133Z,23.27
2019-03-01T15:17:39.243Z,23.90
2019-03-01T15:20:10.547Z,23.60
2019-03-01T15:22:39.615Z,23.27
2019-03-01T15:25:11.964Z,23.90
2019-03-01T15:27:40.135Z,24.40
2019-03-01T15:30:12.236Z,25.27
2019-03-01T15:32:41.128Z,23.30
2019-03-01T15:35:10.691Z,25.93
2019-03-01T15:37:39.732Z,24.37
2019-03-01T15:40:08.720Z,23.63
2019-03-01T15:42:37.970Z,22.37
2019-03-01T15:45:08.303Z,23.33
2019-03-01T15:47:37.659Z,24.97
2019-03-01T15:50:08.080Z,22.60
2019-03-01T15:52:37.104Z,23.60
2019-03-01T15:55:07.715Z,21.57
2019-03-01T15:57:37.435Z,24.33
2019-03-01T16:00:06.875Z,23.33
2019-03-01T16:02:35.811Z,24.47
2019-03-01T16:05:05.347Z,26.47
2019-03-01T16:07:34.322Z,26.53
2019-03-01T16:10:03.728Z,29.67
2019-03-01T16:12:36.015Z,28.53
2019-03-01T16:15:03.367Z,27.10
2019-03-01T16:17:32.307Z,19.10
2019-03-01T16:20:01.310Z,24.23
2019-03-01T16:22:30.512Z,26.97
2019-03-01T16:25:01.948Z,25.63
2019-03-01T16:27:30.968Z,23.57
2019-03-01T16:30:00.314Z,18.10
2019-03-01T16:32:32.341Z,15.70
2019-03-01T16:35:05.056Z,24.60
2019-03-01T16:37:34.227Z,13.80
2019-03-01T16:40:03.283Z,18.03
2019-03-01T16:42:38.948Z,21.33
2019-03-01T16:45:09.207Z,23.23
2019-03-01T16:47:43.008Z,16.80
2019-03-01T16:50:14.535Z,19.30
2019-03-01T16:52:46.302Z,24.13
2019-03-01T16:55:16.187Z,21.50
2019-03-01T16:57:52.069Z,20.80
2019-03-01T17:00:23.091Z,18.27
2019-03-01T17:02:52.475Z,23.30
2019-03-01T17:05:21.465Z,20.70
2019-03-01T17:07:51.265Z,17.97
2019-03-01T17:10:20.395Z,19.37
2019-03-01T17:12:52.058Z,23.20
2019-03-01T17:15:20.637Z,21.23
2019-03-01T17:17:49.651Z,18.27
2019-03-01T17:20:18.635Z,19.47
2019-03-01T17:22:47.693Z,19.90
2019-03-01T17:25:19.294Z,19.40
2019-03-01T17:27:49.555Z,20.37
2019-03-01T17:30:19.282Z,17.30
2019-03-01T17:32:48.508Z,20.93
2019-03-01T17:35:17.683Z,17.73
2019-03-01T17:37:46.826Z,16.80
2019-03-01T17:40:15.944Z,14.53
2019-03-01T17:42:44.915Z,18.70
2019-03-01T17:45:17.290Z,18.93
2019-03-01T17:47:55.214Z,18.17
2019-03-01T17:50:24.105Z,18.43
2019-03-01T17:52:54.913Z,17.33
2019-03-01T17:55:24.570Z,19.83
2019-03-01T17:57:53.457Z,21.00
2019-03-01T18:00:27.417Z,13.50
2019-03-01T18:02:56.310Z,14.80
2019-03-01T18:05:25.352Z,15.70
2019-03-01T18:07:54.668Z,14.77
2019-03-01T18:10:28.791Z,17.10
2019-03-01T18:12:57.296Z,15.17
2019-03-01T18:15:26.513Z,16.80
2019-03-01T18:17:55.569Z,15.77
2019-03-01T18:20:24.758Z,15.70
2019-03-01T18:22:54.041Z,16.47
2019-03-01T18:25:26.226Z,16.43
2019-03-01T18:27:54.589Z,11.30
2019-03-01T18:30:23.684Z,10.53
2019-03-01T18:32:53.267Z,13.43
2019-03-01T18:35:22.396Z,7.70
2019-03-01T18:37:54.889Z,10.37
2019-03-01T18:40:24.577Z,8.50
2019-03-01T18:42:53.921Z,11.00
2019-03-01T18:45:22.984Z,11.50
2019-03-01T18:47:52.075Z,10.40
2019-03-01T18:50:27.523Z,12.60
2019-03-01T18:52:55.059Z,12.83
2019-03-01T18:55:28.320Z,11.17
2019-03-01T18:57:57.285Z,11.10
2019-03-01T19:00:29.077Z,8.40
2019-03-01T19:03:01.043Z,10.40
2019-03-01T19:05:28.916Z,11.40
2019-03-01T19:08:00.810Z,9.27
2019-03-01T19:10:28.793Z,12.40
2019-03-01T19:12:57.899Z,11.27
2019-03-01T19:15:26.817Z,9.40
2019-03-01T19:17:58.630Z,8.77
2019-03-01T19:20:27.783Z,9.33
2019-03-01T19:22:56.702Z,10.23
2019-03-01T19:25:26.547Z,9.93
2019-03-01T19:27:55.645Z,8.10
2019-03-01T19:30:25.013Z,9.00
2019-03-01T19:32:54.013Z,9.70
2019-03-01T19:35:28.494Z,10.60
2019-03-01T19:37:54.355Z,9.47
2019-03-01T19:40:23.762Z,7.10
2019-03-01T19:42:52.759Z,9.23
2019-03-01T19:45:21.780Z,6.83
2019-03-01T19:47:50.764Z,6.40
2019-03-01T19:50:21.830Z,9.80
2019-03-01T19:52:50.786Z,6.67
2019-03-01T19:55:19.665Z,11.20
2019-03-01T19:57:48.624Z,10.53
2019-03-01T20:00:20.112Z,10.50
2019-03-01T20:02:49.209Z,10.37
2019-03-01T20:05:20.772Z,10.60
2019-03-01T20:07:51.768Z,12.40
2019-03-01T20:10:21.148Z,12.70
2019-03-01T20:12:50.512Z,10.20
2019-03-01T20:15:20.834Z,10.00
2019-03-01T20:17:49.922Z,13.50
2019-03-01T20:20:19.760Z,13.43
2019-03-01T20:22:50.535Z,13.67
2019-03-01T20:25:19.418Z,13.50
2019-03-01T20:27:48.342Z,13.50
2019-03-01T20:30:28.463Z,12.73
2019-03-01T20:32:52.669Z,13.37
2019-03-01T20:35:21.631Z,13.37
2019-03-01T20:37:50.607Z,10.90
2019-03-01T20:40:22.707Z,7.40
2019-03-01T20:42:50.385Z,10.03
2019-03-01T20:45:21.733Z,10.53
2019-03-01T20:47:53.578Z,10.27
2019-03-01T20:50:21.569Z,9.40
2019-03-01T20:52:50.579Z,10.77
2019-03-01T20:55:20.068Z,11.80
2019-03-01T20:57:49.276Z,12.23
2019-03-01T21:00:18.240Z,9.27
2019-03-01T21:02:50.224Z,7.90
2019-03-01T21:05:17.923Z,11.20
2019-03-01T21:07:48.218Z,9.67
2019-03-01T21:10:19.366Z,10.67
2019-03-01T21:12:48.568Z,10.43
2019-03-01T21:15:17.576Z,9.87
2019-03-01T21:17:46.631Z,9.70
2019-03-01T21:20:19.565Z,11.67
2019-03-01T21:22:48.814Z,9.93
2019-03-01T21:25:19.602Z,12.17
2019-03-01T21:27:48.797Z,11.13
2019-03-01T21:30:20.735Z,10.90
2019-03-01T21:32:50.771Z,11.40
2019-03-01T21:35:20.652Z,12.17
2019-03-01T21:37:49.673Z,10.23
2019-03-01T21:40:18.635Z,11.53
2019-03-01T21:42:48.553Z,14.93
2019-03-01T21:45:21.576Z,8.60
2019-03-01T21:47:49.022Z,12.57
2019-03-01T21:50:18.151Z,12.53
2019-03-01T21:52:47.074Z,12.60
2019-03-01T21:55:16.244Z,12.97
2019-03-01T21:57:45.184Z,15.37
2019-03-01T22:00:17.017Z,13.80
2019-03-01T22:02:48.778Z,15.57
2019-03-01T22:05:16.836Z,12.33
2019-03-01T22:07:45.751Z,14.30
2019-03-01T22:10:15.949Z,14.90
2019-03-01T22:12:44.928Z,13.50
2019-03-01T22:15:16.128Z,9.70
2019-03-01T22:17:45.391Z,14.30
2019-03-01T22:20:15.938Z,14.17
2019-03-01T22:22:44.902Z,15.33
2019-03-01T22:25:13.884Z,13.97
2019-03-01T22:27:43.240Z,13.93
2019-03-01T22:30:14.944Z,13.80
2019-03-01T22:32:45.483Z,14.53
2019-03-01T22:35:14.818Z,16.17
2019-03-01T22:37:43.770Z,14.47
2019-03-01T22:40:12.769Z,14.50
2019-03-01T22:42:41.648Z,14.90
2019-03-01T22:45:13.633Z,12.60
2019-03-01T22:47:42.688Z,9.03
2019-03-01T22:50:12.568Z,15.53
2019-03-01T22:52:41.565Z,16.50
2019-03-01T22:55:11.542Z,11.43
2019-03-01T22:57:40.892Z,11.70
2019-03-01T23:00:19.516Z,13.30
2019-03-01T23:02:47.191Z,12.27
2019-03-01T23:05:16.172Z,12.77
2019-03-01T23:07:45.171Z,11.80
2019-03-01T23:10:18.431Z,11.93
2019-03-01T23:12:46.759Z,13.33
2019-03-01T23:15:15.762Z,13.53
2019-03-01T23:17:44.676Z,14.67
2019-03-01T23:20:13.850Z,13.90
2019-03-01T23:22:45.988Z,10.97
2019-03-01T23:25:13.781Z,12.00
2019-03-01T23:27:42.924Z,13.10
2019-03-01T23:30:11.874Z,12.53
2019-03-01T23:32:40.746Z,14.00
2019-03-01T23:35:10.106Z,12.17
2019-03-01T23:37:39.877Z,13.67
2019-03-01T23:40:08.995Z,12.40
2019-03-01T23:42:37.873Z,14.20
2019-03-01T23:45:08.675Z,12.13
2019-03-01T23:47:38.356Z,11.10
2019-03-01T23:50:08.423Z,10.25
2019-03-01T23:52:37.283Z,14.35
2019-03-01T23:55:06.284Z,14.70
2019-03-01T23:57:37.958Z,15.10
